createdAt,value
2023-02-25T00:02:31.860Z,98155.69
2023-02-25T00:07:35.206Z,98149.55
2023-02-25T00:12:38.972Z,98149.61
2023-02-25T00:17:44.091Z,98138.58
2023-02-25T00:22:47.327Z,98130.10
2023-02-25T00:27:50.930Z,98126.73
2023-02-25T00:32:54.095Z,98121.85
2023-02-25T00:38:13.841Z,98124.27
2023-02-25T00:43:18.703Z,98112.39
2023-02-25T00:48:22.433Z,98108.06
2023-02-25T00:53:26.167Z,98107.93
2023-02-25T00:58:29.383Z,98095.60
2023-02-25T01:03:33.317Z,98090.02
2023-02-25T01:08:37.406Z,98084.66
2023-02-25T01:13:41.202Z,98078.92
2023-02-25T01:18:46.607Z,98071.09
2023-02-25T01:23:56.965Z,98056.29
2023-02-25T01:29:01.345Z,98053.11
2023-02-25T01:34:06.689Z,98047.46
2023-02-25T01:39:10.474Z,98038.44
2023-02-25T01:44:13.680Z,98033.27
2023-02-25T01:49:19.272Z,98028.37
2023-02-25T01:54:22.670Z,98018.82
2023-02-25T01:59:28.039Z,98006.75
2023-02-25T02:04:31.892Z,97988.80
2023-02-25T02:09:35.258Z,97983.38
2023-02-25T02:14:42.228Z,97985.86
2023-02-25T02:19:48.218Z,97981.06
2023-02-25T02:25:11.680Z,97960.02
2023-02-25T02:30:21.889Z,97959.89
2023-02-25T02:35:37.289Z,97962.00
2023-02-25T02:40:52.320Z,97954.23
2023-02-25T02:45:59.800Z,97944.98
2023-02-25T02:51:06.404Z,97934.53
2023-02-25T02:56:12.728Z,97925.55
2023-02-25T03:01:18.516Z,97926.80
2023-02-25T03:06:25.962Z,97922.20
2023-02-25T03:11:29.643Z,97922.34
2023-02-25T03:16:41.100Z,97921.17
2023-02-25T03:21:49.882Z,97925.33
2023-02-25T03:26:53.587Z,97915.13
2023-02-25T03:32:19.860Z,97912.95
2023-02-25T03:37:26.023Z,97910.86
2023-02-25T03:42:33.863Z,97915.11
2023-02-25T03:47:38.651Z,97921.54
2023-02-25T03:52:42.266Z,97924.73
2023-02-25T03:57:55.328Z,97923.42
2023-02-25T04:02:58.576Z,97923.35
2023-02-25T04:08:02.374Z,97924.95
2023-02-25T04:13:13.320Z,97929.57
2023-02-25T04:18:17.445Z,97931.81
2023-02-25T04:23:21.125Z,97934.32
2023-02-25T04:28:24.968Z,97935.63
2023-02-25T04:33:28.112Z,97935.89
2023-02-25T04:38:31.330Z,97941.06
2023-02-25T04:43:34.579Z,97939.30
2023-02-25T04:48:39.609Z,97926.67
2023-02-25T04:53:42.844Z,97924.14
2023-02-25T04:58:46.394Z,97919.86
2023-02-25T05:03:49.544Z,97921.81
2023-02-25T05:08:53.165Z,97913.06
2023-02-25T05:13:57.403Z,97916.27
2023-02-25T05:19:00.638Z,97920.15
2023-02-25T05:24:04.253Z,97920.97
2023-02-25T05:29:07.563Z,97925.36
2023-02-25T05:34:11.796Z,97925.96
2023-02-25T05:39:15.036Z,97927.27
2023-02-25T05:44:18.661Z,97932.55
2023-02-25T05:49:21.966Z,97934.46
2023-02-25T05:54:25.584Z,97934.76
2023-02-25T05:59:28.900Z,97938.88
2023-02-25T06:04:32.126Z,97935.91
2023-02-25T06:09:36.380Z,97938.40
2023-02-25T06:14:39.764Z,97938.79
2023-02-25T06:19:43.423Z,97939.52
2023-02-25T06:24:46.591Z,97937.09
2023-02-25T06:29:49.685Z,97933.83
2023-02-25T06:34:52.768Z,97931.38
2023-02-25T06:39:56.090Z,97928.85
2023-02-25T06:44:59.541Z,97935.30
2023-02-25T06:50:03.020Z,97932.84
2023-02-25T06:55:07.009Z,97934.65
2023-02-25T07:00:10.923Z,97931.89
2023-02-25T07:05:14.073Z,97930.33
2023-02-25T07:10:17.298Z,97930.35
2023-02-25T07:15:21.324Z,97929.16
2023-02-25T07:20:24.613Z,97930.04
2023-02-25T07:25:27.896Z,97928.21
2023-02-25T07:30:31.250Z,97932.65
2023-02-25T07:35:34.783Z,97933.83
2023-02-25T07:40:39.707Z,97924.48
2023-02-25T07:45:43.149Z,97924.62
2023-02-25T07:50:46.803Z,97928.20
2023-02-25T07:55:50.675Z,97927.55
2023-02-25T08:00:54.254Z,97925.70
2023-02-25T08:05:57.726Z,97924.46
2023-02-25T08:11:04.819Z,97926.20
2023-02-25T08:16:09.370Z,97928.36
2023-02-25T08:21:18.225Z,97933.42
2023-02-25T08:26:23.662Z,97931.53
2023-02-25T08:31:27.510Z,97925.66
2023-02-25T08:36:31.464Z,97921.22
2023-02-25T08:41:35.197Z,97913.92
2023-02-25T08:46:38.584Z,97914.92
2023-02-25T08:51:42.003Z,97917.89
2023-02-25T08:56:45.526Z,97916.45
2023-02-25T09:01:50.502Z,97918.41
2023-02-25T09:06:54.391Z,97913.85
2023-02-25T09:11:57.748Z,97911.43
2023-02-25T09:17:04.838Z,97911.15
2023-02-25T09:22:09.186Z,97906.26
2023-02-25T09:27:12.581Z,97900.52
2023-02-25T09:32:20.374Z,97894.09
2023-02-25T09:37:23.729Z,97891.31
2023-02-25T09:42:30.274Z,97888.16
2023-02-25T09:47:38.943Z,97893.66
2023-02-25T09:52:43.224Z,97891.73
2023-02-25T09:57:54.428Z,97890.80
2023-02-25T10:03:05.541Z,97890.16
2023-02-25T10:08:17.440Z,97889.84
2023-02-25T10:13:20.722Z,97890.52
2023-02-25T10:18:42.305Z,97889.27
2023-02-25T10:23:48.572Z,97899.77
2023-02-25T10:28:55.282Z,97906.02
2023-02-25T10:34:03.983Z,97904.89
2023-02-25T10:39:10.198Z,97902.54
2023-02-25T10:44:13.689Z,97899.38
2023-02-25T10:49:25.916Z,97898.17
2023-02-25T10:54:34.034Z,97895.91
2023-02-25T10:59:39.457Z,97899.59
2023-02-25T11:04:43.055Z,97901.50
2023-02-25T11:09:46.368Z,97901.39
2023-02-25T11:14:49.822Z,97900.45
2023-02-25T11:19:58.708Z,97894.48
2023-02-25T11:25:04.480Z,97890.69
2023-02-25T11:30:36.588Z,97888.09
2023-02-25T11:35:40.674Z,97885.67
2023-02-25T11:40:45.655Z,97885.05
2023-02-25T11:45:57.677Z,97884.69
2023-02-25T11:51:10.309Z,97882.05
2023-02-25T11:56:19.789Z,97893.00
2023-02-25T12:01:25.688Z,97906.20
2023-02-25T12:06:41.438Z,97909.96
2023-02-25T12:11:44.793Z,97906.84
2023-02-25T12:16:53.986Z,97906.97
2023-02-25T12:22:04.261Z,97910.30
2023-02-25T12:27:16.226Z,97909.48
2023-02-25T12:32:22.522Z,97911.02
2023-02-25T12:37:28.657Z,97909.73
2023-02-25T12:42:31.796Z,97911.28
2023-02-25T12:47:38.140Z,97913.17
2023-02-25T12:52:50.796Z,97920.05
2023-02-25T12:57:57.398Z,97919.93
2023-02-25T13:03:23.279Z,97920.77
2023-02-25T13:08:37.678Z,97934.85
2023-02-25T13:13:53.452Z,97937.36
2023-02-25T13:18:56.612Z,97939.59
2023-02-25T13:24:20.286Z,97935.11
2023-02-25T13:29:52.798Z,97941.36
2023-02-25T13:35:15.056Z,97950.17
2023-02-25T13:40:20.722Z,97956.31
2023-02-25T13:45:26.947Z,97966.23
2023-02-25T13:50:42.236Z,97969.80
2023-02-25T13:55:57.540Z,97976.21
2023-02-25T14:01:16.639Z,97982.30
2023-02-25T14:06:38.360Z,97990.88
2023-02-25T14:11:57.789Z,97991.76
2023-02-25T14:17:22.699Z,97997.63
2023-02-25T14:22:28.855Z,98004.71
2023-02-25T14:27:44.940Z,98010.83
2023-02-25T14:33:08.397Z,98016.52
2023-02-25T14:38:35.995Z,98020.26
2023-02-25T14:43:39.348Z,98027.63
2023-02-25T14:48:54.971Z,98032.86
2023-02-25T14:54:18.759Z,98046.17
2023-02-25T14:59:34.267Z,98056.71
2023-02-25T15:04:40.092Z,98069.89
2023-02-25T15:10:08.830Z,98071.83
2023-02-25T15:15:35.294Z,98078.54
2023-02-25T15:20:42.146Z,98085.04
2023-02-25T15:25:53.359Z,98093.80
2023-02-25T15:31:02.744Z,98104.08
2023-02-25T15:36:21.723Z,98117.64
2023-02-25T15:41:28.133Z,98121.64
2023-02-25T15:46:34.900Z,98131.05
2023-02-25T15:51:41.512Z,98132.21
2023-02-25T15:56:47.524Z,98139.73
2023-02-25T16:01:50.674Z,98149.55
2023-02-25T16:06:54.609Z,98154.41
2023-02-25T16:12:02.926Z,98162.88
2023-02-25T16:17:18.342Z,98172.59
2023-02-25T16:23:30.209Z,98174.69
2023-02-25T16:29:12.627Z,98184.88
2023-02-25T16:35:41.557Z,98193.11
2023-02-25T16:41:59.295Z,98204.17
2023-02-25T16:48:01.114Z,98219.63
2023-02-25T16:53:58.256Z,98229.55
2023-02-25T17:00:23.263Z,98242.69
2023-02-25T17:19:23.007Z,98255.56
2023-02-25T17:24:35.808Z,98267.09
2023-02-25T17:30:05.623Z,98274.09
2023-02-25T17:35:09.527Z,98278.41
2023-02-25T17:40:21.657Z,98285.59
2023-02-25T17:46:28.210Z,98299.33
2023-02-25T17:51:57.839Z,98305.83
2023-02-25T17:57:06.749Z,98308.89
2023-02-25T18:02:32.991Z,98313.09
2023-02-25T18:07:38.188Z,98325.69
2023-02-25T18:12:47.884Z,98331.81
2023-02-25T18:17:56.322Z,98338.86
2023-02-25T18:23:05.195Z,98348.84
2023-02-25T18:28:20.214Z,98357.23
2023-02-25T18:33:31.639Z,98362.77
2023-02-25T18:39:02.000Z,98374.17
2023-02-25T18:44:14.311Z,98384.88
2023-02-25T18:49:40.992Z,98389.14
2023-02-25T18:54:44.514Z,98391.48
2023-02-25T19:00:32.180Z,98398.25
2023-02-25T19:05:58.255Z,98406.29
2023-02-25T19:11:24.871Z,98415.14
2023-02-25T19:16:42.899Z,98427.84
2023-02-25T19:21:47.871Z,98436.78
2023-02-25T19:26:51.076Z,98453.42
2023-02-25T19:32:19.246Z,98460.40
2023-02-25T19:37:23.065Z,98472.69
2023-02-25T19:42:29.570Z,98479.50
2023-02-25T19:47:49.498Z,98484.60
2023-02-25T19:52:54.432Z,98493.62
2023-02-25T19:58:07.966Z,98502.91
2023-02-25T20:03:11.851Z,98514.72
2023-02-25T20:08:16.757Z,98521.21
2023-02-25T20:13:20.242Z,98530.91
2023-02-25T20:18:23.418Z,98544.83
2023-02-25T20:23:29.274Z,98556.91
2023-02-25T20:28:32.980Z,98564.82
2023-02-25T20:34:10.224Z,98570.84
2023-02-25T20:40:30.704Z,98575.27
2023-02-25T20:46:00.993Z,98584.84
2023-02-25T20:51:40.501Z,98600.34
2023-02-25T20:56:47.170Z,98609.26
2023-02-25T21:02:01.994Z,98616.88
2023-02-25T21:07:25.530Z,98636.35
2023-02-25T21:12:46.061Z,98650.14
2023-02-25T21:18:13.033Z,98663.87
2023-02-25T21:23:41.263Z,98671.08
2023-02-25T21:28:47.606Z,98682.15
2023-02-25T21:33:51.274Z,98688.08
2023-02-25T21:38:56.993Z,98693.65
2023-02-25T21:44:03.212Z,98701.89
2023-02-25T21:49:06.610Z,98707.16
2023-02-25T21:54:14.268Z,98717.33
2023-02-25T21:59:37.814Z,98729.08
2023-02-25T22:04:41.169Z,98732.80
2023-02-25T22:09:44.358Z,98738.00
2023-02-25T22:14:47.799Z,98751.16
2023-02-25T22:19:51.115Z,98758.38
2023-02-25T22:25:05.506Z,98771.17
2023-02-25T22:30:09.224Z,98780.70
2023-02-25T22:35:12.563Z,98785.68
2023-02-25T22:40:18.610Z,98794.08
2023-02-25T22:45:22.084Z,98809.98
2023-02-25T22:50:29.203Z,98818.66
2023-02-25T22:55:33.959Z,98832.69
2023-02-25T23:00:42.263Z,98843.77
2023-02-25T23:05:45.632Z,98847.36
2023-02-25T23:10:49.887Z,98858.55
2023-02-25T23:16:04.897Z,98871.81
2023-02-25T23:21:12.413Z,98885.36
2023-02-25T23:26:18.643Z,98898.89
2023-02-25T23:31:59.268Z,98906.48
2023-02-25T23:37:13.817Z,98916.41
2023-02-25T23:43:09.884Z,98919.12
2023-02-25T23:48:16.486Z,98929.13
2023-02-25T23:53:30.418Z,98938.45
2023-02-25T23:58:57.090Z,98944.34
